sensor_id;sensor_type;location;lat;lon;timestamp;temperature;humidity
38860;DHT22;24609;48.316;16.174;2023-04-25T00:00:22;9.30;99.90
38860;DHT22;24609;48.316;16.174;2023-04-25T00:02:47;9.30;99.90
38860;DHT22;24609;48.316;16.174;2023-04-25T00:05:13;9.30;99.90
38860;DHT22;24609;48.316;16.174;2023-04-25T00:07:42;9.30;99.90
38860;DHT22;24609;48.316;16.174;2023-04-25T00:10:09;9.30;99.90
38860;DHT22;24609;48.316;16.174;2023-04-25T00:12:36;9.30;99.90
38860;DHT22;24609;48.316;16.174;2023-04-25T00:15:03;9.30;99.90
38860;DHT22;24609;48.316;16.174;2023-04-25T00:17:29;9.30;99.90
38860;DHT22;24609;48.316;16.174;2023-04-25T00:19:54;9.30;99.90
38860;DHT22;24609;48.316;16.174;2023-04-25T00:22:21;9.30;99.90
38860;DHT22;24609;48.316;16.174;2023-04-25T00:24:47;9.20;99.90
38860;DHT22;24609;48.316;16.174;2023-04-25T00:27:13;9.20;99.90
38860;DHT22;24609;48.316;16.174;2023-04-25T00:29:39;9.20;99.90
38860;DHT22;24609;48.316;16.174;2023-04-25T00:32:05;9.10;99.90
38860;DHT22;24609;48.316;16.174;2023-04-25T00:34:30;9.20;99.90
38860;DHT22;24609;48.316;16.174;2023-04-25T00:36:56;9.20;99.90
38860;DHT22;24609;48.316;16.174;2023-04-25T00:39:22;9.10;99.90
38860;DHT22;24609;48.316;16.174;2023-04-25T00:41:48;9.10;99.90
38860;DHT22;24609;48.316;16.174;2023-04-25T00:44:15;9.10;99.90
38860;DHT22;24609;48.316;16.174;2023-04-25T00:46:42;9.00;99.90
38860;DHT22;24609;48.316;16.174;2023-04-25T00:49:08;9.00;99.90
38860;DHT22;24609;48.316;16.174;2023-04-25T00:51:34;9.00;99.90
38860;DHT22;24609;48.316;16.174;2023-04-25T00:54:00;9.00;99.90
38860;DHT22;24609;48.316;16.174;2023-04-25T00:56:27;8.90;99.90
38860;DHT22;24609;48.316;16.174;2023-04-25T00:58:54;9.00;99.90
38860;DHT22;24609;48.316;16.174;2023-04-25T01:01:23;9.00;99.90
38860;DHT22;24609;48.316;16.174;2023-04-25T01:03:49;9.00;99.90
38860;DHT22;24609;48.316;16.174;2023-04-25T01:06:16;9.00;99.90
38860;DHT22;24609;48.316;16.174;2023-04-25T01:08:41;9.00;99.90
38860;DHT22;24609;48.316;16.174;2023-04-25T01:11:07;8.90;99.90
38860;DHT22;24609;48.316;16.174;2023-04-25T01:13:34;8.90;99.90
38860;DHT22;24609;48.316;16.174;2023-04-25T01:16:00;8.90;99.90
38860;DHT22;24609;48.316;16.174;2023-04-25T01:18:26;8.90;99.90
38860;DHT22;24609;48.316;16.174;2023-04-25T01:20:52;8.90;99.90
38860;DHT22;24609;48.316;16.174;2023-04-25T01:23:21;8.90;99.90
38860;DHT22;24609;48.316;16.174;2023-04-25T01:25:48;8.90;99.90
38860;DHT22;24609;48.316;16.174;2023-04-25T01:28:14;9.00;99.90
38860;DHT22;24609;48.316;16.174;2023-04-25T01:30:40;8.90;99.90
38860;DHT22;24609;48.316;16.174;2023-04-25T01:33:08;8.90;99.90
38860;DHT22;24609;48.316;16.174;2023-04-25T01:35:34;8.90;99.90
38860;DHT22;24609;48.316;16.174;2023-04-25T01:38:00;8.90;99.90
38860;DHT22;24609;48.316;16.174;2023-04-25T01:40:27;9.00;99.90
38860;DHT22;24609;48.316;16.174;2023-04-25T01:42:53;8.90;99.90
38860;DHT22;24609;48.316;16.174;2023-04-25T01:45:19;8.90;99.90
38860;DHT22;24609;48.316;16.174;2023-04-25T01:47:45;8.90;99.90
38860;DHT22;24609;48.316;16.174;2023-04-25T01:50:17;8.80;99.90
38860;DHT22;24609;48.316;16.174;2023-04-25T01:52:43;8.80;99.90
38860;DHT22;24609;48.316;16.174;2023-04-25T01:55:09;8.90;99.90
38860;DHT22;24609;48.316;16.174;2023-04-25T01:57:35;8.80;99.90
38860;DHT22;24609;48.316;16.174;2023-04-25T02:00:03;8.80;99.90
38860;DHT22;24609;48.316;16.174;2023-04-25T02:02:29;8.70;99.90
38860;DHT22;24609;48.316;16.174;2023-04-25T02:04:55;8.70;99.90
38860;DHT22;24609;48.316;16.174;2023-04-25T02:07:21;8.60;99.90
38860;DHT22;24609;48.316;16.174;2023-04-25T02:09:47;8.50;99.90
38860;DHT22;24609;48.316;16.174;2023-04-25T02:12:13;8.50;99.90
38860;DHT22;24609;48.316;16.174;2023-04-25T02:14:39;8.50;99.90
38860;DHT22;24609;48.316;16.174;2023-04-25T02:17:05;8.40;99.90
38860;DHT22;24609;48.316;16.174;2023-04-25T02:19:31;8.40;99.90
38860;DHT22;24609;48.316;16.174;2023-04-25T02:21:56;8.40;99.90
38860;DHT22;24609;48.316;16.174;2023-04-25T02:24:23;8.40;99.90
38860;DHT22;24609;48.316;16.174;2023-04-25T02:26:49;8.40;99.90
38860;DHT22;24609;48.316;16.174;2023-04-25T02:29:15;8.30;99.90
38860;DHT22;24609;48.316;16.174;2023-04-25T02:31:41;8.30;99.90
38860;DHT22;24609;48.316;16.174;2023-04-25T02:34:07;8.30;99.90
38860;DHT22;24609;48.316;16.174;2023-04-25T02:36:33;8.30;99.90
38860;DHT22;24609;48.316;16.174;2023-04-25T02:39:01;8.20;99.90
38860;DHT22;24609;48.316;16.174;2023-04-25T02:41:27;8.20;99.90
38860;DHT22;24609;48.316;16.174;2023-04-25T02:43:52;8.30;99.90
38860;DHT22;24609;48.316;16.174;2023-04-25T02:46:18;8.20;99.90
38860;DHT22;24609;48.316;16.174;2023-04-25T02:48:44;8.20;99.90
38860;DHT22;24609;48.316;16.174;2023-04-25T02:51:09;8.20;99.90
38860;DHT22;24609;48.316;16.174;2023-04-25T02:53:35;8.20;99.90
38860;DHT22;24609;48.316;16.174;2023-04-25T02:56:01;8.10;99.90
38860;DHT22;24609;48.316;16.174;2023-04-25T02:58:27;8.10;99.90
38860;DHT22;24609;48.316;16.174;2023-04-25T03:00:53;8.10;99.90
38860;DHT22;24609;48.316;16.174;2023-04-25T03:03:18;8.00;99.90
38860;DHT22;24609;48.316;16.174;2023-04-25T03:05:50;7.90;99.90
38860;DHT22;24609;48.316;16.174;2023-04-25T03:08:16;7.90;99.90
38860;DHT22;24609;48.316;16.174;2023-04-25T03:10:43;7.80;99.90
38860;DHT22;24609;48.316;16.174;2023-04-25T03:13:08;7.70;99.90
38860;DHT22;24609;48.316;16.174;2023-04-25T03:15:35;7.70;99.90
38860;DHT22;24609;48.316;16.174;2023-04-25T03:18:00;7.70;99.90
38860;DHT22;24609;48.316;16.174;2023-04-25T03:20:26;7.70;99.90
38860;DHT22;24609;48.316;16.174;2023-04-25T03:22:52;7.70;99.90
38860;DHT22;24609;48.316;16.174;2023-04-25T03:25:18;7.70;99.90
38860;DHT22;24609;48.316;16.174;2023-04-25T03:27:43;7.70;99.90
38860;DHT22;24609;48.316;16.174;2023-04-25T03:30:09;7.60;99.90
38860;DHT22;24609;48.316;16.174;2023-04-25T03:32:35;7.50;99.90
38860;DHT22;24609;48.316;16.174;2023-04-25T03:35:01;7.50;99.90
38860;DHT22;24609;48.316;16.174;2023-04-25T03:37:26;7.50;99.90
38860;DHT22;24609;48.316;16.174;2023-04-25T03:39:52;7.40;99.90
38860;DHT22;24609;48.316;16.174;2023-04-25T03:42:18;7.50;99.90
38860;DHT22;24609;48.316;16.174;2023-04-25T03:44:43;7.50;99.90
38860;DHT22;24609;48.316;16.174;2023-04-25T03:47:09;7.50;99.90
38860;DHT22;24609;48.316;16.174;2023-04-25T03:49:35;7.50;99.90
38860;DHT22;24609;48.316;16.174;2023-04-25T03:52:02;7.50;99.90
38860;DHT22;24609;48.316;16.174;2023-04-25T03:54:27;7.40;99.90
38860;DHT22;24609;48.316;16.174;2023-04-25T03:56:53;7.40;99.90
38860;DHT22;24609;48.316;16.174;2023-04-25T03:59:19;7.30;99.90
38860;DHT22;24609;48.316;16.174;2023-04-25T04:01:44;7.20;99.90
38860;DHT22;24609;48.316;16.174;2023-04-25T04:04:10;7.10;99.90
38860;DHT22;24609;48.316;16.174;2023-04-25T04:06:36;7.10;99.90
38860;DHT22;24609;48.316;16.174;2023-04-25T04:09:02;6.90;99.90
38860;DHT22;24609;48.316;16.174;2023-04-25T04:11:28;6.80;99.90
38860;DHT22;24609;48.316;16.174;2023-04-25T04:13:54;6.80;99.90
38860;DHT22;24609;48.316;16.174;2023-04-25T04:16:20;6.80;99.90
38860;DHT22;24609;48.316;16.174;2023-04-25T04:18:46;6.80;99.90
38860;DHT22;24609;48.316;16.174;2023-04-25T04:21:11;6.70;99.90
38860;DHT22;24609;48.316;16.174;2023-04-25T04:23:37;6.70;99.90
38860;DHT22;24609;48.316;16.174;2023-04-25T04:26:03;6.60;99.90
38860;DHT22;24609;48.316;16.174;2023-04-25T04:28:29;6.60;99.90
38860;DHT22;24609;48.316;16.174;2023-04-25T04:30:55;6.70;99.90
38860;DHT22;24609;48.316;16.174;2023-04-25T04:33:20;6.60;99.90
38860;DHT22;24609;48.316;16.174;2023-04-25T04:35:47;6.60;99.90
38860;DHT22;24609;48.316;16.174;2023-04-25T04:38:13;6.50;99.90
38860;DHT22;24609;48.316;16.174;2023-04-25T04:40:41;6.40;99.90
38860;DHT22;24609;48.316;16.174;2023-04-25T04:43:08;6.40;99.90
38860;DHT22;24609;48.316;16.174;2023-04-25T04:45:36;6.30;99.90
38860;DHT22;24609;48.316;16.174;2023-04-25T04:48:05;6.30;99.90
38860;DHT22;24609;48.316;16.174;2023-04-25T04:50:31;6.30;99.90
38860;DHT22;24609;48.316;16.174;2023-04-25T04:52:58;6.20;99.90
38860;DHT22;24609;48.316;16.174;2023-04-25T04:55:23;6.30;99.90
38860;DHT22;24609;48.316;16.174;2023-04-25T04:57:49;6.30;99.90
38860;DHT22;24609;48.316;16.174;2023-04-25T05:00:15;6.30;99.90
38860;DHT22;24609;48.316;16.174;2023-04-25T05:02:41;6.30;99.90
38860;DHT22;24609;48.316;16.174;2023-04-25T05:05:07;6.40;99.90
38860;DHT22;24609;48.316;16.174;2023-04-25T05:07:33;6.50;99.90
38860;DHT22;24609;48.316;16.174;2023-04-25T05:09:59;6.60;99.90
38860;DHT22;24609;48.316;16.174;2023-04-25T05:12:25;6.70;99.90
38860;DHT22;24609;48.316;16.174;2023-04-25T05:14:50;6.70;99.90
38860;DHT22;24609;48.316;16.174;2023-04-25T05:17:16;6.80;99.90
38860;DHT22;24609;48.316;16.174;2023-04-25T05:19:42;7.00;99.90
38860;DHT22;24609;48.316;16.174;2023-04-25T05:22:07;7.30;99.90
38860;DHT22;24609;48.316;16.174;2023-04-25T05:24:33;7.50;99.90
38860;DHT22;24609;48.316;16.174;2023-04-25T05:26:59;7.70;99.90
38860;DHT22;24609;48.316;16.174;2023-04-25T05:29:25;7.90;99.90
38860;DHT22;24609;48.316;16.174;2023-04-25T05:31:50;8.10;99.90
38860;DHT22;24609;48.316;16.174;2023-04-25T05:34:16;8.30;99.90
38860;DHT22;24609;48.316;16.174;2023-04-25T05:36:42;8.60;99.90
38860;DHT22;24609;48.316;16.174;2023-04-25T05:39:07;8.90;99.90
38860;DHT22;24609;48.316;16.174;2023-04-25T05:41:34;9.30;99.90
38860;DHT22;24609;48.316;16.174;2023-04-25T05:44:00;9.50;99.90
38860;DHT22;24609;48.316;16.174;2023-04-25T05:46:25;9.70;99.90
38860;DHT22;24609;48.316;16.174;2023-04-25T05:48:51;9.80;99.90
38860;DHT22;24609;48.316;16.174;2023-04-25T05:51:16;9.90;99.90
38860;DHT22;24609;48.316;16.174;2023-04-25T05:53:44;10.00;99.90
38860;DHT22;24609;48.316;16.174;2023-04-25T05:56:09;10.20;99.90
38860;DHT22;24609;48.316;16.174;2023-04-25T05:58:35;10.40;99.90
38860;DHT22;24609;48.316;16.174;2023-04-25T06:01:01;10.70;99.90
38860;DHT22;24609;48.316;16.174;2023-04-25T06:03:27;11.10;99.90
38860;DHT22;24609;48.316;16.174;2023-04-25T06:05:53;11.50;99.90
38860;DHT22;24609;48.316;16.174;2023-04-25T06:08:19;11.40;99.90
38860;DHT22;24609;48.316;16.174;2023-04-25T06:10:45;11.30;99.90
38860;DHT22;24609;48.316;16.174;2023-04-25T06:13:10;11.40;99.90
38860;DHT22;24609;48.316;16.174;2023-04-25T06:15:36;11.90;99.90
38860;DHT22;24609;48.316;16.174;2023-04-25T06:18:02;12.40;99.90
38860;DHT22;24609;48.316;16.174;2023-04-25T06:20:27;13.40;99.90
38860;DHT22;24609;48.316;16.174;2023-04-25T06:22:53;14.50;99.90
38860;DHT22;24609;48.316;16.174;2023-04-25T06:25:19;14.60;99.90
38860;DHT22;24609;48.316;16.174;2023-04-25T06:27:45;14.60;99.90
38860;DHT22;24609;48.316;16.174;2023-04-25T06:30:11;14.80;99.90
38860;DHT22;24609;48.316;16.174;2023-04-25T06:32:38;15.10;99.90
38860;DHT22;24609;48.316;16.174;2023-04-25T06:35:04;15.20;99.90
38860;DHT22;24609;48.316;16.174;2023-04-25T06:37:30;15.00;99.90
38860;DHT22;24609;48.316;16.174;2023-04-25T06:39:56;15.10;99.90
38860;DHT22;24609;48.316;16.174;2023-04-25T06:42:22;15.50;99.90
38860;DHT22;24609;48.316;16.174;2023-04-25T06:44:47;16.40;99.90
38860;DHT22;24609;48.316;16.174;2023-04-25T06:47:13;16.10;99.90
38860;DHT22;24609;48.316;16.174;2023-04-25T06:49:39;15.90;99.90
38860;DHT22;24609;48.316;16.174;2023-04-25T06:52:05;16.10;99.90
38860;DHT22;24609;48.316;16.174;2023-04-25T06:54:30;16.20;99.90
38860;DHT22;24609;48.316;16.174;2023-04-25T06:56:56;16.30;99.90
38860;DHT22;24609;48.316;16.174;2023-04-25T06:59:22;15.50;99.90
38860;DHT22;24609;48.316;16.174;2023-04-25T07:01:48;15.40;99.90
38860;DHT22;24609;48.316;16.174;2023-04-25T07:04:14;15.60;99.90
38860;DHT22;24609;48.316;16.174;2023-04-25T07:06:39;16.00;99.90
38860;DHT22;24609;48.316;16.174;2023-04-25T07:09:10;15.30;99.90
38860;DHT22;24609;48.316;16.174;2023-04-25T07:11:36;14.40;99.90
38860;DHT22;24609;48.316;16.174;2023-04-25T07:14:02;14.90;99.90
38860;DHT22;24609;48.316;16.174;2023-04-25T07:16:28;14.20;99.90
38860;DHT22;24609;48.316;16.174;2023-04-25T07:18:54;14.90;99.90
38860;DHT22;24609;48.316;16.174;2023-04-25T07:21:20;15.50;99.90
38860;DHT22;24609;48.316;16.174;2023-04-25T07:23:46;16.00;99.90
38860;DHT22;24609;48.316;16.174;2023-04-25T07:26:12;16.40;99.90
38860;DHT22;24609;48.316;16.174;2023-04-25T07:28:38;16.20;99.90
38860;DHT22;24609;48.316;16.174;2023-04-25T07:31:04;16.80;99.90
38860;DHT22;24609;48.316;16.174;2023-04-25T07:33:30;17.50;99.90
38860;DHT22;24609;48.316;16.174;2023-04-25T07:35:56;18.30;99.90
38860;DHT22;24609;48.316;16.174;2023-04-25T07:38:22;18.90;99.90
38860;DHT22;24609;48.316;16.174;2023-04-25T07:40:48;17.80;99.00
38860;DHT22;24609;48.316;16.174;2023-04-25T07:43:14;16.60;99.90
38860;DHT22;24609;48.316;16.174;2023-04-25T07:45:45;16.60;99.90
38860;DHT22;24609;48.316;16.174;2023-04-25T07:48:16;16.10;99.90
38860;DHT22;24609;48.316;16.174;2023-04-25T07:50:42;15.40;99.90
38860;DHT22;24609;48.316;16.174;2023-04-25T07:53:08;15.10;99.90
38860;DHT22;24609;48.316;16.174;2023-04-25T07:55:34;14.90;99.90
38860;DHT22;24609;48.316;16.174;2023-04-25T07:57:59;15.60;99.90
38860;DHT22;24609;48.316;16.174;2023-04-25T08:00:25;15.60;99.90
38860;DHT22;24609;48.316;16.174;2023-04-25T08:02:51;15.30;99.90
38860;DHT22;24609;48.316;16.174;2023-04-25T08:05:17;15.10;99.90
38860;DHT22;24609;48.316;16.174;2023-04-25T08:07:42;15.30;99.90
38860;DHT22;24609;48.316;16.174;2023-04-25T08:10:09;15.30;99.90
38860;DHT22;24609;48.316;16.174;2023-04-25T08:12:35;15.60;99.90
38860;DHT22;24609;48.316;16.174;2023-04-25T08:15:00;15.70;99.90
38860;DHT22;24609;48.316;16.174;2023-04-25T08:17:26;16.60;99.90
38860;DHT22;24609;48.316;16.174;2023-04-25T08:19:52;18.00;99.90
38860;DHT22;24609;48.316;16.174;2023-04-25T08:22:18;18.50;99.90
38860;DHT22;24609;48.316;16.174;2023-04-25T08:24:44;20.70;96.20
38860;DHT22;24609;48.316;16.174;2023-04-25T08:27:09;19.10;96.20
38860;DHT22;24609;48.316;16.174;2023-04-25T08:29:36;17.50;97.00
38860;DHT22;24609;48.316;16.174;2023-04-25T08:32:02;18.20;98.30
38860;DHT22;24609;48.316;16.174;2023-04-25T08:34:28;19.50;95.80
38860;DHT22;24609;48.316;16.174;2023-04-25T08:36:53;19.10;95.70
38860;DHT22;24609;48.316;16.174;2023-04-25T08:39:19;20.00;96.20
38860;DHT22;24609;48.316;16.174;2023-04-25T08:41:46;22.20;90.30
38860;DHT22;24609;48.316;16.174;2023-04-25T08:44:12;23.40;87.10
38860;DHT22;24609;48.316;16.174;2023-04-25T08:46:38;24.30;73.40
38860;DHT22;24609;48.316;16.174;2023-04-25T08:49:05;21.30;82.00
38860;DHT22;24609;48.316;16.174;2023-04-25T08:51:32;22.80;82.40
38860;DHT22;24609;48.316;16.174;2023-04-25T08:54:09;20.30;75.00
38860;DHT22;24609;48.316;16.174;2023-04-25T08:56:36;18.50;85.20
38860;DHT22;24609;48.316;16.174;2023-04-25T08:59:03;19.40;89.20
38860;DHT22;24609;48.316;16.174;2023-04-25T09:01:29;18.10;91.90
38860;DHT22;24609;48.316;16.174;2023-04-25T09:03:54;17.00;93.60
38860;DHT22;24609;48.316;16.174;2023-04-25T09:06:21;16.30;97.40
38860;DHT22;24609;48.316;16.174;2023-04-25T09:08:50;16.20;97.90
38860;DHT22;24609;48.316;16.174;2023-04-25T09:11:16;16.50;98.60
38860;DHT22;24609;48.316;16.174;2023-04-25T09:13:42;16.40;99.10
38860;DHT22;24609;48.316;16.174;2023-04-25T09:16:07;17.20;97.10
38860;DHT22;24609;48.316;16.174;2023-04-25T09:18:34;18.60;96.00
38860;DHT22;24609;48.316;16.174;2023-04-25T09:21:08;18.40;93.60
38860;DHT22;24609;48.316;16.174;2023-04-25T09:23:44;18.90;94.20
38860;DHT22;24609;48.316;16.174;2023-04-25T09:26:10;19.10;95.50
38860;DHT22;24609;48.316;16.174;2023-04-25T09:28:35;18.30;93.40
38860;DHT22;24609;48.316;16.174;2023-04-25T09:31:03;16.70;96.00
38860;DHT22;24609;48.316;16.174;2023-04-25T09:33:31;15.20;96.20
38860;DHT22;24609;48.316;16.174;2023-04-25T09:36:05;14.30;96.50
38860;DHT22;24609;48.316;16.174;2023-04-25T09:38:36;13.90;98.60
38860;DHT22;24609;48.316;16.174;2023-04-25T09:41:05;13.70;99.40
38860;DHT22;24609;48.316;16.174;2023-04-25T09:43:31;13.80;99.90
38860;DHT22;24609;48.316;16.174;2023-04-25T09:45:57;14.20;99.90
38860;DHT22;24609;48.316;16.174;2023-04-25T09:48:25;15.00;99.90
38860;DHT22;24609;48.316;16.174;2023-04-25T09:51:11;15.70;99.90
38860;DHT22;24609;48.316;16.174;2023-04-25T09:53:44;16.60;99.60
38860;DHT22;24609;48.316;16.174;2023-04-25T09:56:12;17.50;97.90
38860;DHT22;24609;48.316;16.174;2023-04-25T09:58:40;20.10;90.60
38860;DHT22;24609;48.316;16.174;2023-04-25T10:01:07;23.30;76.80
38860;DHT22;24609;48.316;16.174;2023-04-25T10:03:35;22.50;69.70
38860;DHT22;24609;48.316;16.174;2023-04-25T10:06:04;26.70;66.30
38860;DHT22;24609;48.316;16.174;2023-04-25T10:08:34;28.50;53.80
38860;DHT22;24609;48.316;16.174;2023-04-25T10:11:01;29.30;51.50
38860;DHT22;24609;48.316;16.174;2023-04-25T10:13:29;28.80;48.80
38860;DHT22;24609;48.316;16.174;2023-04-25T10:16:00;30.10;45.70
38860;DHT22;24609;48.316;16.174;2023-04-25T10:18:28;30.10;48.10
38860;DHT22;24609;48.316;16.174;2023-04-25T10:20:55;28.60;47.10
38860;DHT22;24609;48.316;16.174;2023-04-25T10:23:21;28.70;46.70
38860;DHT22;24609;48.316;16.174;2023-04-25T10:25:49;28.50;43.20
38860;DHT22;24609;48.316;16.174;2023-04-25T10:28:15;28.80;44.00
38860;DHT22;24609;48.316;16.174;2023-04-25T10:31:02;25.50;47.00
38860;DHT22;24609;48.316;16.174;2023-04-25T10:36:13;29.70;45.10
38860;DHT22;24609;48.316;16.174;2023-04-25T10:38:41;31.40;42.00
38860;DHT22;24609;48.316;16.174;2023-04-25T10:41:09;32.30;39.10
38860;DHT22;24609;48.316;16.174;2023-04-25T10:43:43;31.40;37.90
38860;DHT22;24609;48.316;16.174;2023-04-25T10:48:47;26.90;44.00
38860;DHT22;24609;48.316;16.174;2023-04-25T10:51:19;25.90;48.20
38860;DHT22;24609;48.316;16.174;2023-04-25T10:53:46;28.30;43.00
38860;DHT22;24609;48.316;16.174;2023-04-25T10:56:19;25.10;46.00
38860;DHT22;24609;48.316;16.174;2023-04-25T10:58:47;22.50;52.50
38860;DHT22;24609;48.316;16.174;2023-04-25T11:01:20;20.00;56.30
38860;DHT22;24609;48.316;16.174;2023-04-25T11:03:46;18.30;63.00
38860;DHT22;24609;48.316;16.174;2023-04-25T11:06:46;16.90;65.60
38860;DHT22;24609;48.316;16.174;2023-04-25T11:09:16;16.00;65.40
38860;DHT22;24609;48.316;16.174;2023-04-25T11:11:42;15.60;67.90
38860;DHT22;24609;48.316;16.174;2023-04-25T11:14:08;15.60;68.80
38860;DHT22;24609;48.316;16.174;2023-04-25T11:16:33;15.60;70.80
38860;DHT22;24609;48.316;16.174;2023-04-25T11:18:59;15.90;72.60
38860;DHT22;24609;48.316;16.174;2023-04-25T11:21:28;15.90;73.70
38860;DHT22;24609;48.316;16.174;2023-04-25T11:23:56;15.80;73.40
38860;DHT22;24609;48.316;16.174;2023-04-25T11:26:22;15.00;67.80
38860;DHT22;24609;48.316;16.174;2023-04-25T11:28:49;14.90;77.20
38860;DHT22;24609;48.316;16.174;2023-04-25T11:31:15;14.90;83.30
38860;DHT22;24609;48.316;16.174;2023-04-25T11:33:41;14.80;94.10
38860;DHT22;24609;48.316;16.174;2023-04-25T11:36:08;14.50;90.30
38860;DHT22;24609;48.316;16.174;2023-04-25T11:38:34;14.80;91.40
38860;DHT22;24609;48.316;16.174;2023-04-25T11:41:00;15.00;91.10
38860;DHT22;24609;48.316;16.174;2023-04-25T11:43:26;15.30;90.60
38860;DHT22;24609;48.316;16.174;2023-04-25T11:45:51;15.60;89.70
38860;DHT22;24609;48.316;16.174;2023-04-25T11:48:18;15.70;89.00
38860;DHT22;24609;48.316;16.174;2023-04-25T11:50:44;16.00;90.70
38860;DHT22;24609;48.316;16.174;2023-04-25T11:53:10;18.90;78.10
38860;DHT22;24609;48.316;16.174;2023-04-25T11:55:37;21.60;68.10
38860;DHT22;24609;48.316;16.174;2023-04-25T11:58:04;25.90;60.10
38860;DHT22;24609;48.316;16.174;2023-04-25T12:00:30;28.10;51.50
38860;DHT22;24609;48.316;16.174;2023-04-25T12:02:57;24.80;55.70
38860;DHT22;24609;48.316;16.174;2023-04-25T12:05:28;20.30;59.40
38860;DHT22;24609;48.316;16.174;2023-04-25T12:07:54;16.70;78.40
38860;DHT22;24609;48.316;16.174;2023-04-25T12:10:22;15.00;99.70
38860;DHT22;24609;48.316;16.174;2023-04-25T12:12:49;14.30;99.90
38860;DHT22;24609;48.316;16.174;2023-04-25T12:15:23;14.00;99.90
38860;DHT22;24609;48.316;16.174;2023-04-25T12:17:51;14.40;99.90
38860;DHT22;24609;48.316;16.174;2023-04-25T12:20:24;15.40;99.90
38860;DHT22;24609;48.316;16.174;2023-04-25T12:22:51;19.50;94.00
38860;DHT22;24609;48.316;16.174;2023-04-25T12:25:37;24.70;72.40
38860;DHT22;24609;48.316;16.174;2023-04-25T12:28:14;27.50;58.90
38860;DHT22;24609;48.316;16.174;2023-04-25T12:33:23;28.20;50.50
38860;DHT22;24609;48.316;16.174;2023-04-25T12:35:49;26.00;50.90
38860;DHT22;24609;48.316;16.174;2023-04-25T12:40:47;25.70;50.30
38860;DHT22;24609;48.316;16.174;2023-04-25T12:43:12;26.20;52.90
38860;DHT22;24609;48.316;16.174;2023-04-25T12:45:38;27.50;51.80
38860;DHT22;24609;48.316;16.174;2023-04-25T12:48:04;25.00;50.40
38860;DHT22;24609;48.316;16.174;2023-04-25T12:50:29;25.80;51.20
38860;DHT22;24609;48.316;16.174;2023-04-25T12:52:55;27.00;49.30
38860;DHT22;24609;48.316;16.174;2023-04-25T12:55:21;28.40;48.10
38860;DHT22;24609;48.316;16.174;2023-04-25T12:57:47;27.30;48.60
38860;DHT22;24609;48.316;16.174;2023-04-25T13:00:13;26.50;48.60
38860;DHT22;24609;48.316;16.174;2023-04-25T13:02:40;28.20;47.20
38860;DHT22;24609;48.316;16.174;2023-04-25T13:05:06;29.60;44.50
38860;DHT22;24609;48.316;16.174;2023-04-25T13:07:33;30.40;42.40
38860;DHT22;24609;48.316;16.174;2023-04-25T13:09:58;31.00;42.50
38860;DHT22;24609;48.316;16.174;2023-04-25T13:12:24;31.00;41.80
38860;DHT22;24609;48.316;16.174;2023-04-25T13:14:50;30.80;40.50
38860;DHT22;24609;48.316;16.174;2023-04-25T13:17:16;29.60;41.10
38860;DHT22;24609;48.316;16.174;2023-04-25T13:19:41;25.90;44.60
38860;DHT22;24609;48.316;16.174;2023-04-25T13:22:07;25.70;47.30
38860;DHT22;24609;48.316;16.174;2023-04-25T13:24:33;24.50;50.60
38860;DHT22;24609;48.316;16.174;2023-04-25T13:26:58;25.70;48.40
38860;DHT22;24609;48.316;16.174;2023-04-25T13:29:24;24.40;46.60
38860;DHT22;24609;48.316;16.174;2023-04-25T13:31:50;24.80;47.60
38860;DHT22;24609;48.316;16.174;2023-04-25T13:34:15;26.40;47.50
38860;DHT22;24609;48.316;16.174;2023-04-25T13:36:41;28.40;43.90
38860;DHT22;24609;48.316;16.174;2023-04-25T13:39:07;28.80;42.20
38860;DHT22;24609;48.316;16.174;2023-04-25T13:41:33;28.00;43.10
38860;DHT22;24609;48.316;16.174;2023-04-25T13:43:58;25.20;46.50
38860;DHT22;24609;48.316;16.174;2023-04-25T13:46:25;23.20;51.70
38860;DHT22;24609;48.316;16.174;2023-04-25T13:48:50;22.80;52.60
38860;DHT22;24609;48.316;16.174;2023-04-25T13:51:16;20.40;54.40
38860;DHT22;24609;48.316;16.174;2023-04-25T13:53:43;17.40;64.60
38860;DHT22;24609;48.316;16.174;2023-04-25T13:56:09;15.50;79.50
38860;DHT22;24609;48.316;16.174;2023-04-25T13:58:36;14.10;89.10
38860;DHT22;24609;48.316;16.174;2023-04-25T14:01:02;12.70;99.90
38860;DHT22;24609;48.316;16.174;2023-04-25T14:03:30;11.80;99.90
38860;DHT22;24609;48.316;16.174;2023-04-25T14:05:55;11.30;99.90
38860;DHT22;24609;48.316;16.174;2023-04-25T14:08:21;11.50;99.90
38860;DHT22;24609;48.316;16.174;2023-04-25T14:10:47;12.00;99.90
38860;DHT22;24609;48.316;16.174;2023-04-25T14:13:12;12.60;99.90
38860;DHT22;24609;48.316;16.174;2023-04-25T14:15:38;13.10;99.90
38860;DHT22;24609;48.316;16.174;2023-04-25T14:18:04;13.50;99.90
38860;DHT22;24609;48.316;16.174;2023-04-25T14:20:30;14.00;99.90
38860;DHT22;24609;48.316;16.174;2023-04-25T14:22:56;18.80;99.90
38860;DHT22;24609;48.316;16.174;2023-04-25T14:25:23;22.90;94.70
38860;DHT22;24609;48.316;16.174;2023-04-25T14:27:49;19.40;94.50
38860;DHT22;24609;48.316;16.174;2023-04-25T14:30:19;16.30;99.90
38860;DHT22;24609;48.316;16.174;2023-04-25T14:32:45;14.40;99.90
38860;DHT22;24609;48.316;16.174;2023-04-25T14:35:11;13.70;99.90
38860;DHT22;24609;48.316;16.174;2023-04-25T14:37:37;13.50;99.90
38860;DHT22;24609;48.316;16.174;2023-04-25T14:40:03;13.40;99.90
38860;DHT22;24609;48.316;16.174;2023-04-25T14:42:29;13.00;99.90
38860;DHT22;24609;48.316;16.174;2023-04-25T14:44:55;12.60;99.90
38860;DHT22;24609;48.316;16.174;2023-04-25T14:47:21;12.50;99.90
38860;DHT22;24609;48.316;16.174;2023-04-25T14:49:47;12.10;99.90
38860;DHT22;24609;48.316;16.174;2023-04-25T14:52:19;11.60;99.90
38860;DHT22;24609;48.316;16.174;2023-04-25T14:54:46;11.60;99.90
38860;DHT22;24609;48.316;16.174;2023-04-25T14:57:12;12.00;99.90
38860;DHT22;24609;48.316;16.174;2023-04-25T14:59:38;12.60;99.90
38860;DHT22;24609;48.316;16.174;2023-04-25T15:02:04;13.40;99.90
38860;DHT22;24609;48.316;16.174;2023-04-25T15:04:30;14.10;99.90
38860;DHT22;24609;48.316;16.174;2023-04-25T15:06:56;13.70;99.90
38860;DHT22;24609;48.316;16.174;2023-04-25T15:09:22;13.50;99.90
38860;DHT22;24609;48.316;16.174;2023-04-25T15:11:50;12.90;99.90
38860;DHT22;24609;48.316;16.174;2023-04-25T15:14:16;12.70;99.90
38860;DHT22;24609;48.316;16.174;2023-04-25T15:16:42;12.50;99.90
38860;DHT22;24609;48.316;16.174;2023-04-25T15:19:08;12.60;99.90
38860;DHT22;24609;48.316;16.174;2023-04-25T15:21:34;12.70;99.90
38860;DHT22;24609;48.316;16.174;2023-04-25T15:24:00;12.40;99.90
38860;DHT22;24609;48.316;16.174;2023-04-25T15:26:27;12.40;99.90
38860;DHT22;24609;48.316;16.174;2023-04-25T15:28:52;12.40;99.90